Погода Приморскийна 2 недели

Республика Дагестан, Россия

20 мая-02 июня
  • 20мая
    Сегодня
    +14°
    +21°
    Небольшая облачность
    ВремяПогодаТемператураВлажностьДавлениеВетер, м/сВероятность осадков
    00:00Облачно с прояснениями+15°C87 %762 мм0.9 м/с11 %
    03:00Практически безоблачно+14°C84 %762 мм1.3 м/с4 %
    06:00Ясно и безоблачно+16°C75 %763 мм0.9 м/с2 %
    09:00Ясно и безоблачно+19°C51 %763 мм2.5 м/с2 %
    12:00Практически безоблачно+20°C62 %763 мм2.8 м/с10 %
    15:00Небольшая облачность+20°C63 %762 мм2.5 м/с16 %
    18:00Ясно и безоблачно+18°C74 %763 мм1.6 м/с9 %
    21:00Ясно и безоблачно+16°C90 %764 мм1.1 м/с2 %
  • 21мая
    Вторник
    +13°
    +22°
    Ясно и безоблачно
    ВремяПогодаТемператураВлажностьДавлениеВетер, м/сВероятность осадков
    00:00Ясно и безоблачно+15°C86 %764 мм0.8 м/с2 %
    03:00Ясно и безоблачно+15°C76 %764 мм1.0 м/с2 %
    06:00Ясно и безоблачно+16°C71 %765 мм0.8 м/с2 %
    09:00Ясно и безоблачно+20°C52 %765 мм2.5 м/с2 %
    12:00Ясно и безоблачно+21°C45 %765 мм3.0 м/с3 %
    15:00Ясно и безоблачно+20°C45 %765 мм2.8 м/с5 %
    18:00Ясно и безоблачно+18°C65 %765 мм1.9 м/с3 %
    21:00Ясно и безоблачно+16°C80 %766 мм1.4 м/с2 %
  • 22мая
    Среда
    +14°
    +21°
    Ясно и безоблачно
    ВремяПогодаТемператураВлажностьДавлениеВетер, м/сВероятность осадков
    00:00Практически безоблачно+15°C85 %765 мм1.1 м/с2 %
    03:00Практически безоблачно+14°C82 %765 мм1.4 м/с2 %
    06:00Ясно и безоблачно+16°C71 %765 мм1.5 м/с2 %
    09:00Ясно и безоблачно+19°C54 %764 мм3.0 м/с2 %
    12:00Ясно и безоблачно+21°C68 %764 мм3.5 м/с2 %
    15:00Ясно и безоблачно+20°C68 %763 мм3.3 м/с2 %
    18:00Ясно и безоблачно+18°C79 %763 мм2.1 м/с4 %
    21:00Ясно и безоблачно+16°C92 %763 мм1.6 м/с3 %
  • 23мая
    Четверг
    +15°
    +22°
    Небольшая облачность
    ВремяПогодаТемператураВлажностьДавлениеВетер, м/сВероятность осадков
    00:00Ясно и безоблачно+16°C95 %762 мм0.9 м/с2 %
    03:00Практически безоблачно+15°C93 %762 мм1.0 м/с2 %
    06:00Ясно и безоблачно+17°C84 %762 мм0.9 м/с2 %
    09:00Облачно с прояснениями+20°C72 %762 мм2.7 м/с3 %
    12:00Небольшая облачность+22°C70 %761 мм3.4 м/с7 %
    15:00Небольшая облачность+21°C69 %761 мм3.4 м/с14 %
    18:00Практически безоблачно+19°C74 %761 мм2.0 м/с7 %
    21:00Практически безоблачно+17°C85 %761 мм1.6 м/с5 %
  • 24мая
    Пятница
    +16°
    +23°
    Практически безоблачно
    ВремяПогодаТемператураВлажностьДавлениеВетер, м/сВероятность осадков
    00:00Практически безоблачно+17°C95 %761 мм1.3 м/с8 %
    03:00Практически безоблачно+17°C92 %761 мм1.5 м/с7 %
    06:00Ясно и безоблачно+18°C84 %762 мм1.1 м/с5 %
    09:00Практически безоблачно+21°C67 %762 мм2.7 м/с5 %
    12:00Небольшая облачность+23°C65 %762 мм3.2 м/с15 %
    15:00Практически безоблачно+22°C64 %763 мм3.0 м/с20 %
    18:00Облачно с прояснениями+20°C74 %763 мм1.7 м/с17 %
    21:00Пасмурно, сплошная облачность+19°C88 %764 мм1.3 м/с16 %
Мы используем cookies
Соглашаюсь